createdAt,value
2023-04-16T00:02:49.260Z,5.70
2023-04-16T00:07:55.408Z,7.00
2023-04-16T00:13:01.394Z,5.80
2023-04-16T00:18:06.986Z,6.00
2023-04-16T00:23:12.630Z,4.80
2023-04-16T00:28:18.175Z,5.10
2023-04-16T00:33:24.056Z,6.60
2023-04-16T00:38:32.122Z,5.30
2023-04-16T00:43:37.725Z,4.90
2023-04-16T00:48:45.051Z,6.20
2023-04-16T00:53:51.135Z,5.40
2023-04-16T00:58:57.148Z,5.90
2023-04-16T01:04:03.040Z,4.80
2023-04-16T01:09:10.086Z,6.20
2023-04-16T01:14:15.958Z,6.60
2023-04-16T01:19:21.845Z,5.30
2023-04-16T01:24:27.709Z,4.20
2023-04-16T01:29:33.376Z,4.80
2023-04-16T01:34:39.249Z,5.10
2023-04-16T01:39:45.217Z,6.20
2023-04-16T01:44:51.035Z,6.30
2023-04-16T01:49:56.972Z,5.50
2023-04-16T01:55:03.298Z,5.20
2023-04-16T02:00:11.834Z,5.00
2023-04-16T02:05:17.961Z,4.80
2023-04-16T02:10:23.710Z,4.30
2023-04-16T02:15:29.604Z,4.50
2023-04-16T02:20:35.972Z,5.00
2023-04-16T02:25:43.242Z,4.20
2023-04-16T02:30:48.855Z,5.20
2023-04-16T02:35:54.569Z,5.40
2023-04-16T02:41:00.590Z,3.70
2023-04-16T02:46:06.324Z,4.00
2023-04-16T02:51:12.217Z,4.70
2023-04-16T02:56:17.872Z,4.90
2023-04-16T03:01:23.583Z,5.80
2023-04-16T03:06:29.360Z,3.80
2023-04-16T03:11:35.178Z,5.40
2023-04-16T03:16:41.095Z,4.70
2023-04-16T03:21:46.863Z,5.00
2023-04-16T03:26:52.513Z,5.50
2023-04-16T03:31:58.310Z,5.40
2023-04-16T03:37:05.657Z,6.00
2023-04-16T03:42:11.555Z,4.00
2023-04-16T03:47:17.407Z,3.90
2023-04-16T03:52:23.042Z,3.60
2023-04-16T03:57:28.650Z,3.90
2023-04-16T04:02:34.337Z,5.20
2023-04-16T04:07:40.392Z,4.30
2023-04-16T04:12:46.183Z,4.60
2023-04-16T04:17:52.168Z,5.40
2023-04-16T04:22:58.378Z,5.00
2023-04-16T04:28:04.361Z,5.70
2023-04-16T04:33:10.207Z,4.10
2023-04-16T04:38:19.515Z,3.80
2023-04-16T04:43:25.614Z,4.90
2023-04-16T04:48:31.413Z,3.90
2023-04-16T04:53:37.148Z,4.50
2023-04-16T04:58:43.150Z,4.20
2023-04-16T05:03:48.805Z,5.00
2023-04-16T05:08:54.510Z,3.60
2023-04-16T05:14:00.176Z,3.20
2023-04-16T05:19:06.076Z,3.70
2023-04-16T05:24:13.058Z,4.10
2023-04-16T05:29:21.548Z,4.30
2023-04-16T05:34:27.521Z,4.90
2023-04-16T05:39:33.171Z,4.90
2023-04-16T05:44:38.846Z,4.90
2023-04-16T05:49:44.480Z,3.80
2023-04-16T05:54:50.134Z,5.20
2023-04-16T05:59:55.961Z,4.40
2023-04-16T06:05:01.612Z,4.20
2023-04-16T06:10:10.031Z,4.90
2023-04-16T06:15:15.912Z,4.10
2023-04-16T06:20:21.808Z,5.10
2023-04-16T06:25:27.527Z,5.50
2023-04-16T06:30:33.813Z,5.10
2023-04-16T06:35:39.393Z,4.70
2023-04-16T06:40:45.264Z,4.80
2023-04-16T06:45:50.928Z,3.90
2023-04-16T06:50:59.240Z,3.90
2023-04-16T06:56:06.026Z,5.20
2023-04-16T07:01:11.977Z,5.70
2023-04-16T07:06:17.666Z,4.50
2023-04-16T07:11:23.366Z,4.60
2023-04-16T07:16:29.256Z,5.70
2023-04-16T07:21:34.950Z,5.10
2023-04-16T07:26:40.668Z,4.50
2023-04-16T07:31:47.282Z,4.20
2023-04-16T07:36:53.118Z,4.60
2023-04-16T07:41:58.794Z,5.30
2023-04-16T07:47:05.776Z,4.30
2023-04-16T07:52:12.018Z,4.00
2023-04-16T07:57:17.731Z,3.60
2023-04-16T08:02:23.628Z,4.20
2023-04-16T08:07:29.352Z,5.20
2023-04-16T08:12:35.388Z,4.00
2023-04-16T08:17:41.172Z,3.70
2023-04-16T08:22:48.284Z,4.70
2023-04-16T08:27:54.058Z,3.20
2023-04-16T08:32:59.915Z,4.70
2023-04-16T08:38:07.696Z,4.50
2023-04-16T08:43:16.409Z,3.90
2023-04-16T08:48:23.978Z,3.40
2023-04-16T08:53:41.236Z,4.80
2023-04-16T08:58:50.227Z,5.60
2023-04-16T09:03:57.353Z,5.70
2023-04-16T09:09:05.032Z,4.80
2023-04-16T09:14:12.326Z,4.60
2023-04-16T09:19:18.232Z,5.60
2023-04-16T09:24:24.686Z,4.40
2023-04-16T09:29:38.372Z,5.40
2023-04-16T09:35:01.397Z,5.40
2023-04-16T09:40:10.133Z,4.50
2023-04-16T09:45:15.879Z,5.30
2023-04-16T09:50:21.933Z,4.50
2023-04-16T09:55:29.777Z,3.10
2023-04-16T10:00:35.589Z,4.10
2023-04-16T10:05:49.066Z,5.60
2023-04-16T10:10:56.129Z,5.80
2023-04-16T10:16:03.500Z,5.10
2023-04-16T10:21:11.497Z,6.00
2023-04-16T10:26:19.661Z,5.50
2023-04-16T10:31:27.390Z,5.40
2023-04-16T10:36:37.926Z,8.20
2023-04-16T10:41:45.582Z,6.90
2023-04-16T10:46:51.518Z,5.20
2023-04-16T10:51:59.451Z,3.90
2023-04-16T10:57:08.671Z,4.80
2023-04-16T11:02:17.758Z,4.20
2023-04-16T11:07:34.704Z,4.60
2023-04-16T11:12:42.512Z,5.00
2023-04-16T11:17:51.569Z,5.20
2023-04-16T11:22:58.602Z,5.90
2023-04-16T11:28:04.994Z,6.20
2023-04-16T11:33:12.495Z,5.60
2023-04-16T11:38:20.927Z,6.90
2023-04-16T11:43:27.934Z,6.80
2023-04-16T11:48:51.856Z,5.80
2023-04-16T11:53:58.324Z,6.20
2023-04-16T11:59:16.186Z,6.50
2023-04-16T12:04:26.420Z,8.80
2023-04-16T12:09:32.444Z,8.20
2023-04-16T12:14:38.384Z,6.60
2023-04-16T12:19:52.534Z,6.70
2023-04-16T12:25:05.696Z,8.10
2023-04-16T12:30:14.214Z,9.80
2023-04-16T12:35:33.555Z,7.00
2023-04-16T12:40:39.310Z,8.70
2023-04-16T12:45:44.956Z,7.90
2023-04-16T12:50:53.511Z,8.10
2023-04-16T12:55:59.630Z,9.70
2023-04-16T13:01:05.579Z,8.70
2023-04-16T13:06:11.988Z,7.20
2023-04-16T13:11:19.218Z,7.00
2023-04-16T13:16:25.760Z,8.70
2023-04-16T13:21:31.706Z,7.10
2023-04-16T13:26:37.492Z,8.90
2023-04-16T13:31:43.205Z,8.00
2023-04-16T13:36:49.069Z,6.10
2023-04-16T13:41:54.881Z,7.40
2023-04-16T13:47:01.027Z,10.50
2023-04-16T13:52:07.136Z,8.60
2023-04-16T13:57:13.440Z,8.40
2023-04-16T14:02:19.159Z,8.70
2023-04-16T14:07:26.682Z,7.60
2023-04-16T14:12:32.829Z,10.70
2023-04-16T14:17:38.922Z,8.80
2023-04-16T14:22:46.236Z,7.30
2023-04-16T14:27:51.926Z,8.70
2023-04-16T14:32:57.822Z,7.00
2023-04-16T14:38:03.583Z,7.50
2023-04-16T14:43:09.404Z,8.30
2023-04-16T14:48:15.120Z,6.80
2023-04-16T14:53:21.054Z,7.10
2023-04-16T14:58:28.153Z,7.70
2023-04-16T15:03:34.254Z,7.30
2023-04-16T15:08:40.096Z,6.30
2023-04-16T15:13:45.815Z,7.50
2023-04-16T15:18:51.776Z,6.90
2023-04-16T15:23:57.681Z,6.80
2023-04-16T15:29:03.823Z,7.80
2023-04-16T15:34:09.883Z,7.50
2023-04-16T15:39:15.673Z,6.40
2023-04-16T15:44:21.680Z,7.40
2023-04-16T15:49:27.898Z,8.20
2023-04-16T15:54:33.865Z,7.60
2023-04-16T15:59:39.943Z,7.40
2023-04-16T16:04:46.103Z,6.80
2023-04-16T16:09:52.700Z,7.30
2023-04-16T16:14:58.838Z,6.30
2023-04-16T16:20:09.871Z,6.40
2023-04-16T16:25:16.192Z,9.70
2023-04-16T16:30:22.106Z,9.30
2023-04-16T16:35:27.881Z,7.00
2023-04-16T16:40:33.991Z,6.80
2023-04-16T16:45:39.832Z,7.70
2023-04-16T16:50:45.529Z,8.20
2023-04-16T16:55:51.217Z,8.20
2023-04-16T17:00:57.032Z,8.90
2023-04-16T17:06:02.894Z,10.20
2023-04-16T17:11:08.631Z,16.60
2023-04-16T17:16:16.434Z,55.20
2023-04-16T17:21:22.299Z,63.80
2023-04-16T17:26:28.132Z,30.40
2023-04-16T17:31:33.996Z,24.60
2023-04-16T17:36:40.116Z,11.20
2023-04-16T17:41:46.173Z,15.60
2023-04-16T17:46:51.891Z,22.80
2023-04-16T17:51:57.767Z,12.30
2023-04-16T17:57:03.569Z,14.90
2023-04-16T18:02:09.874Z,17.70
2023-04-16T18:07:16.197Z,13.80
2023-04-16T18:12:22.045Z,15.60
2023-04-16T18:17:28.559Z,15.30
2023-04-16T18:22:34.433Z,16.90
2023-04-16T18:27:40.443Z,15.00
2023-04-16T18:33:04.279Z,11.50
2023-04-16T18:38:13.220Z,9.20
2023-04-16T18:43:18.985Z,7.90
2023-04-16T18:48:25.035Z,6.80
2023-04-16T18:53:31.071Z,10.00
2023-04-16T18:58:36.885Z,11.30
2023-04-16T19:03:42.837Z,13.70
2023-04-16T19:08:48.564Z,13.00
2023-04-16T19:13:54.484Z,12.10
2023-04-16T19:19:00.497Z,12.50
2023-04-16T19:24:07.484Z,16.90
2023-04-16T19:29:13.176Z,17.50
2023-04-16T19:34:18.866Z,14.20
2023-04-16T19:39:27.718Z,13.90
2023-04-16T19:44:33.413Z,12.60
2023-04-16T19:49:39.329Z,10.70
2023-04-16T19:54:45.008Z,11.00
2023-04-16T19:59:50.762Z,13.80
2023-04-16T20:04:56.753Z,11.10
2023-04-16T20:10:03.191Z,10.30
2023-04-16T20:15:11.713Z,8.40
2023-04-16T20:20:17.641Z,8.80
2023-04-16T20:25:25.914Z,8.80
2023-04-16T20:30:38.243Z,9.60
2023-04-16T20:35:43.898Z,11.70
2023-04-16T20:40:57.727Z,10.20
2023-04-16T20:46:03.606Z,11.40
2023-04-16T20:51:09.832Z,11.80
2023-04-16T20:56:15.685Z,15.40
2023-04-16T21:01:21.410Z,12.70
2023-04-16T21:06:27.634Z,15.10
2023-04-16T21:11:34.692Z,10.60
2023-04-16T21:16:40.440Z,11.00
2023-04-16T21:21:46.230Z,10.50
2023-04-16T21:26:51.954Z,11.30
2023-04-16T21:31:57.743Z,12.40
2023-04-16T21:37:03.576Z,11.20
2023-04-16T21:42:09.425Z,11.70
2023-04-16T21:47:15.729Z,11.50
2023-04-16T21:52:21.644Z,11.50
2023-04-16T21:57:27.209Z,10.70
2023-04-16T22:02:33.684Z,12.20
2023-04-16T22:07:39.498Z,14.10
2023-04-16T22:12:46.162Z,15.20
2023-04-16T22:17:51.801Z,13.40
2023-04-16T22:22:58.333Z,14.50
2023-04-16T22:28:04.276Z,13.70
2023-04-16T22:33:09.959Z,14.30
2023-04-16T22:38:16.736Z,11.50
2023-04-16T22:43:22.255Z,13.40
2023-04-16T22:48:27.948Z,14.50
2023-04-16T22:53:34.014Z,13.00
2023-04-16T22:58:40.050Z,12.50
2023-04-16T23:03:45.989Z,13.30
2023-04-16T23:08:51.626Z,12.50
2023-04-16T23:13:58.406Z,11.40
2023-04-16T23:19:04.490Z,12.70
2023-04-16T23:24:10.502Z,11.80
2023-04-16T23:29:16.350Z,12.30
2023-04-16T23:34:22.010Z,13.00
2023-04-16T23:39:27.638Z,12.10
2023-04-16T23:44:33.174Z,12.90
2023-04-16T23:49:38.800Z,12.20
2023-04-16T23:54:44.648Z,10.10
2023-04-16T23:59:50.452Z,11.30
